sensor_id;sensor_type;location;lat;lon;timestamp;P1;durP1;ratioP1;P2;durP2;ratioP2
3647;SDS011;1840;48.892;15.312;2022-10-18T00:00:02;20.00;;;16.00;;
3647;SDS011;1840;48.892;15.312;2022-10-18T00:02:32;24.07;;;16.27;;
3647;SDS011;1840;48.892;15.312;2022-10-18T00:05:00;17.53;;;14.07;;
3647;SDS011;1840;48.892;15.312;2022-10-18T00:07:28;19.13;;;15.07;;
3647;SDS011;1840;48.892;15.312;2022-10-18T00:09:58;19.00;;;14.97;;
3647;SDS011;1840;48.892;15.312;2022-10-18T00:12:26;18.90;;;14.63;;
3647;SDS011;1840;48.892;15.312;2022-10-18T00:14:54;19.67;;;14.80;;
3647;SDS011;1840;48.892;15.312;2022-10-18T00:17:22;19.50;;;14.70;;
3647;SDS011;1840;48.892;15.312;2022-10-18T00:19:50;20.73;;;14.60;;
3647;SDS011;1840;48.892;15.312;2022-10-18T00:22:19;28.47;;;17.47;;
3647;SDS011;1840;48.892;15.312;2022-10-18T00:24:47;21.13;;;15.57;;
3647;SDS011;1840;48.892;15.312;2022-10-18T00:27:16;21.93;;;15.30;;
3647;SDS011;1840;48.892;15.312;2022-10-18T00:29:44;29.97;;;16.50;;
3647;SDS011;1840;48.892;15.312;2022-10-18T00:32:12;22.67;;;16.60;;
3647;SDS011;1840;48.892;15.312;2022-10-18T00:34:40;26.00;;;18.70;;
3647;SDS011;1840;48.892;15.312;2022-10-18T00:37:08;45.33;;;21.97;;
3647;SDS011;1840;48.892;15.312;2022-10-18T00:39:37;23.90;;;16.77;;
3647;SDS011;1840;48.892;15.312;2022-10-18T00:42:05;28.17;;;19.30;;
3647;SDS011;1840;48.892;15.312;2022-10-18T00:47:33;22.47;;;15.60;;
3647;SDS011;1840;48.892;15.312;2022-10-18T00:50:04;25.17;;;18.23;;
3647;SDS011;1840;48.892;15.312;2022-10-18T00:52:34;28.43;;;19.20;;
3647;SDS011;1840;48.892;15.312;2022-10-18T00:55:06;31.67;;;18.07;;
3647;SDS011;1840;48.892;15.312;2022-10-18T00:57:35;28.07;;;18.80;;
3647;SDS011;1840;48.892;15.312;2022-10-18T01:00:06;26.57;;;18.40;;
3647;SDS011;1840;48.892;15.312;2022-10-18T01:02:35;36.80;;;23.60;;
3647;SDS011;1840;48.892;15.312;2022-10-18T01:05:05;36.83;;;21.50;;
3647;SDS011;1840;48.892;15.312;2022-10-18T01:07:37;91.97;;;25.77;;
3647;SDS011;1840;48.892;15.312;2022-10-18T01:10:31;31.40;;;20.67;;
3647;SDS011;1840;48.892;15.312;2022-10-18T01:13:09;29.63;;;19.40;;
3647;SDS011;1840;48.892;15.312;2022-10-18T01:15:54;46.90;;;20.10;;
3647;SDS011;1840;48.892;15.312;2022-10-18T01:18:28;36.10;;;20.43;;
3647;SDS011;1840;48.892;15.312;2022-10-18T01:21:09;25.00;;;16.73;;
3647;SDS011;1840;48.892;15.312;2022-10-18T01:23:52;26.00;;;17.83;;
3647;SDS011;1840;48.892;15.312;2022-10-18T01:26:38;25.80;;;17.80;;
3647;SDS011;1840;48.892;15.312;2022-10-18T01:32:09;31.20;;;20.30;;
3647;SDS011;1840;48.892;15.312;2022-10-18T01:34:40;32.60;;;18.60;;
3647;SDS011;1840;48.892;15.312;2022-10-18T01:37:10;25.20;;;18.00;;
3647;SDS011;1840;48.892;15.312;2022-10-18T01:39:44;107.17;;;20.70;;
3647;SDS011;1840;48.892;15.312;2022-10-18T01:42:14;27.10;;;16.90;;
3647;SDS011;1840;48.892;15.312;2022-10-18T01:44:46;24.90;;;17.40;;
3647;SDS011;1840;48.892;15.312;2022-10-18T01:47:18;22.17;;;15.77;;
3647;SDS011;1840;48.892;15.312;2022-10-18T01:49:46;22.23;;;16.90;;
3647;SDS011;1840;48.892;15.312;2022-10-18T01:52:15;20.00;;;15.63;;
3647;SDS011;1840;48.892;15.312;2022-10-18T01:54:43;29.50;;;18.03;;
3647;SDS011;1840;48.892;15.312;2022-10-18T01:57:17;42.53;;;19.17;;
3647;SDS011;1840;48.892;15.312;2022-10-18T01:59:51;32.07;;;19.67;;
3647;SDS011;1840;48.892;15.312;2022-10-18T02:02:32;87.57;;;20.77;;
3647;SDS011;1840;48.892;15.312;2022-10-18T02:05:10;83.60;;;20.70;;
3647;SDS011;1840;48.892;15.312;2022-10-18T02:07:48;70.20;;;23.10;;
3647;SDS011;1840;48.892;15.312;2022-10-18T02:10:42;36.93;;;19.67;;
3647;SDS011;1840;48.892;15.312;2022-10-18T02:13:15;58.40;;;23.40;;
3647;SDS011;1840;48.892;15.312;2022-10-18T02:15:48;36.50;;;19.40;;
3647;SDS011;1840;48.892;15.312;2022-10-18T02:18:24;27.60;;;20.80;;
3647;SDS011;1840;48.892;15.312;2022-10-18T02:20:56;71.53;;;22.17;;
3647;SDS011;1840;48.892;15.312;2022-10-18T02:23:26;44.40;;;20.80;;
3647;SDS011;1840;48.892;15.312;2022-10-18T02:25:54;26.90;;;19.77;;
3647;SDS011;1840;48.892;15.312;2022-10-18T02:28:22;32.07;;;18.30;;
3647;SDS011;1840;48.892;15.312;2022-10-18T02:30:52;30.93;;;20.80;;
3647;SDS011;1840;48.892;15.312;2022-10-18T02:33:29;30.67;;;19.27;;
3647;SDS011;1840;48.892;15.312;2022-10-18T02:36:03;29.90;;;19.83;;
3647;SDS011;1840;48.892;15.312;2022-10-18T02:38:36;31.37;;;19.40;;
3647;SDS011;1840;48.892;15.312;2022-10-18T02:41:07;27.27;;;20.40;;
3647;SDS011;1840;48.892;15.312;2022-10-18T02:43:35;77.67;;;20.03;;
3647;SDS011;1840;48.892;15.312;2022-10-18T02:46:03;34.93;;;20.50;;
3647;SDS011;1840;48.892;15.312;2022-10-18T02:48:35;27.23;;;19.20;;
3647;SDS011;1840;48.892;15.312;2022-10-18T02:51:03;34.43;;;19.53;;
3647;SDS011;1840;48.892;15.312;2022-10-18T02:53:32;96.43;;;20.93;;
3647;SDS011;1840;48.892;15.312;2022-10-18T02:56:00;79.73;;;21.50;;
3647;SDS011;1840;48.892;15.312;2022-10-18T02:58:28;24.00;;;17.63;;
3647;SDS011;1840;48.892;15.312;2022-10-18T03:00:56;71.50;;;20.63;;
3647;SDS011;1840;48.892;15.312;2022-10-18T03:03:25;94.40;;;21.20;;
3647;SDS011;1840;48.892;15.312;2022-10-18T03:05:54;49.53;;;23.17;;
3647;SDS011;1840;48.892;15.312;2022-10-18T03:08:22;154.50;;;69.93;;
3647;SDS011;1840;48.892;15.312;2022-10-18T03:10:50;101.70;;;28.00;;
3647;SDS011;1840;48.892;15.312;2022-10-18T03:13:18;34.20;;;22.60;;
3647;SDS011;1840;48.892;15.312;2022-10-18T03:15:47;34.13;;;19.10;;
3647;SDS011;1840;48.892;15.312;2022-10-18T03:18:15;28.00;;;19.57;;
3647;SDS011;1840;48.892;15.312;2022-10-18T03:20:43;27.90;;;18.73;;
3647;SDS011;1840;48.892;15.312;2022-10-18T03:23:12;31.60;;;21.10;;
3647;SDS011;1840;48.892;15.312;2022-10-18T03:25:40;28.17;;;21.10;;
3647;SDS011;1840;48.892;15.312;2022-10-18T03:28:11;33.50;;;21.40;;
3647;SDS011;1840;48.892;15.312;2022-10-18T03:30:39;36.43;;;21.77;;
3647;SDS011;1840;48.892;15.312;2022-10-18T03:33:07;53.77;;;24.80;;
3647;SDS011;1840;48.892;15.312;2022-10-18T03:35:35;41.87;;;23.33;;
3647;SDS011;1840;48.892;15.312;2022-10-18T03:38:03;54.90;;;22.30;;
3647;SDS011;1840;48.892;15.312;2022-10-18T03:40:33;77.33;;;24.90;;
3647;SDS011;1840;48.892;15.312;2022-10-18T03:43:01;46.40;;;23.43;;
3647;SDS011;1840;48.892;15.312;2022-10-18T03:45:29;39.70;;;25.20;;
3647;SDS011;1840;48.892;15.312;2022-10-18T03:47:57;36.07;;;20.67;;
3647;SDS011;1840;48.892;15.312;2022-10-18T03:50:25;35.33;;;21.73;;
3647;SDS011;1840;48.892;15.312;2022-10-18T03:52:53;58.77;;;26.37;;
3647;SDS011;1840;48.892;15.312;2022-10-18T03:55:21;42.83;;;21.63;;
3647;SDS011;1840;48.892;15.312;2022-10-18T03:57:50;54.73;;;24.77;;
3647;SDS011;1840;48.892;15.312;2022-10-18T04:00:18;45.77;;;22.93;;
3647;SDS011;1840;48.892;15.312;2022-10-18T04:02:48;48.80;;;26.73;;
3647;SDS011;1840;48.892;15.312;2022-10-18T04:05:21;36.30;;;24.70;;
3647;SDS011;1840;48.892;15.312;2022-10-18T04:07:52;47.03;;;26.30;;
3647;SDS011;1840;48.892;15.312;2022-10-18T04:10:20;51.83;;;25.20;;
3647;SDS011;1840;48.892;15.312;2022-10-18T04:12:48;37.17;;;23.90;;
3647;SDS011;1840;48.892;15.312;2022-10-18T04:15:18;38.30;;;26.43;;
3647;SDS011;1840;48.892;15.312;2022-10-18T04:17:46;53.83;;;25.07;;
3647;SDS011;1840;48.892;15.312;2022-10-18T04:20:14;43.63;;;26.57;;
3647;SDS011;1840;48.892;15.312;2022-10-18T04:22:43;72.77;;;29.33;;
3647;SDS011;1840;48.892;15.312;2022-10-18T04:25:11;89.73;;;24.87;;
3647;SDS011;1840;48.892;15.312;2022-10-18T04:27:40;71.10;;;24.10;;
3647;SDS011;1840;48.892;15.312;2022-10-18T04:30:08;44.00;;;24.23;;
3647;SDS011;1840;48.892;15.312;2022-10-18T04:32:38;38.33;;;24.00;;
3647;SDS011;1840;48.892;15.312;2022-10-18T04:35:06;37.43;;;24.80;;
3647;SDS011;1840;48.892;15.312;2022-10-18T04:37:36;65.47;;;28.67;;
3647;SDS011;1840;48.892;15.312;2022-10-18T04:40:04;65.43;;;25.50;;
3647;SDS011;1840;48.892;15.312;2022-10-18T04:42:33;38.40;;;26.80;;
3647;SDS011;1840;48.892;15.312;2022-10-18T04:45:01;43.90;;;25.73;;
3647;SDS011;1840;48.892;15.312;2022-10-18T04:47:29;55.63;;;27.13;;
3647;SDS011;1840;48.892;15.312;2022-10-18T04:49:59;63.17;;;26.00;;
3647;SDS011;1840;48.892;15.312;2022-10-18T04:52:27;47.03;;;24.60;;
3647;SDS011;1840;48.892;15.312;2022-10-18T04:54:55;58.43;;;24.97;;
3647;SDS011;1840;48.892;15.312;2022-10-18T04:57:23;78.70;;;30.43;;
3647;SDS011;1840;48.892;15.312;2022-10-18T04:59:52;43.80;;;23.07;;
3647;SDS011;1840;48.892;15.312;2022-10-18T05:02:20;62.97;;;25.30;;
3647;SDS011;1840;48.892;15.312;2022-10-18T05:04:49;67.67;;;31.00;;
3647;SDS011;1840;48.892;15.312;2022-10-18T05:07:18;74.63;;;25.40;;
3647;SDS011;1840;48.892;15.312;2022-10-18T05:09:46;54.60;;;24.27;;
3647;SDS011;1840;48.892;15.312;2022-10-18T05:12:14;61.17;;;28.90;;
3647;SDS011;1840;48.892;15.312;2022-10-18T05:14:42;42.53;;;26.13;;
3647;SDS011;1840;48.892;15.312;2022-10-18T05:17:10;45.40;;;28.50;;
3647;SDS011;1840;48.892;15.312;2022-10-18T05:19:38;36.17;;;25.40;;
3647;SDS011;1840;48.892;15.312;2022-10-18T05:22:06;45.43;;;26.90;;
3647;SDS011;1840;48.892;15.312;2022-10-18T05:24:36;57.13;;;26.90;;
3647;SDS011;1840;48.892;15.312;2022-10-18T05:27:04;43.40;;;28.10;;
3647;SDS011;1840;48.892;15.312;2022-10-18T05:29:32;40.97;;;27.13;;
3647;SDS011;1840;48.892;15.312;2022-10-18T05:32:00;45.47;;;27.87;;
3647;SDS011;1840;48.892;15.312;2022-10-18T05:34:28;60.53;;;29.70;;
3647;SDS011;1840;48.892;15.312;2022-10-18T05:36:57;53.27;;;28.20;;
3647;SDS011;1840;48.892;15.312;2022-10-18T05:39:25;58.50;;;27.43;;
3647;SDS011;1840;48.892;15.312;2022-10-18T05:41:55;42.20;;;28.83;;
3647;SDS011;1840;48.892;15.312;2022-10-18T05:44:23;47.47;;;28.47;;
3647;SDS011;1840;48.892;15.312;2022-10-18T05:46:51;59.27;;;27.37;;
3647;SDS011;1840;48.892;15.312;2022-10-18T05:49:19;65.43;;;28.47;;
3647;SDS011;1840;48.892;15.312;2022-10-18T05:51:47;81.73;;;33.80;;
3647;SDS011;1840;48.892;15.312;2022-10-18T05:54:15;35.67;;;26.13;;
3647;SDS011;1840;48.892;15.312;2022-10-18T05:56:44;40.53;;;30.50;;
3647;SDS011;1840;48.892;15.312;2022-10-18T05:59:13;78.60;;;27.07;;
3647;SDS011;1840;48.892;15.312;2022-10-18T06:01:41;139.63;;;27.80;;
3647;SDS011;1840;48.892;15.312;2022-10-18T06:04:09;43.70;;;28.00;;
3647;SDS011;1840;48.892;15.312;2022-10-18T06:06:37;112.63;;;27.90;;
3647;SDS011;1840;48.892;15.312;2022-10-18T06:09:06;120.60;;;30.40;;
3647;SDS011;1840;48.892;15.312;2022-10-18T06:11:34;59.57;;;29.10;;
3647;SDS011;1840;48.892;15.312;2022-10-18T06:14:03;109.87;;;29.77;;
3647;SDS011;1840;48.892;15.312;2022-10-18T06:16:33;82.43;;;32.30;;
3647;SDS011;1840;48.892;15.312;2022-10-18T06:19:02;53.30;;;29.87;;
3647;SDS011;1840;48.892;15.312;2022-10-18T06:21:30;49.53;;;28.00;;
3647;SDS011;1840;48.892;15.312;2022-10-18T06:23:58;160.00;;;30.37;;
3647;SDS011;1840;48.892;15.312;2022-10-18T06:26:27;91.97;;;34.97;;
3647;SDS011;1840;48.892;15.312;2022-10-18T06:28:55;63.20;;;32.80;;
3647;SDS011;1840;48.892;15.312;2022-10-18T06:31:23;99.73;;;36.13;;
3647;SDS011;1840;48.892;15.312;2022-10-18T06:33:54;121.90;;;34.20;;
3647;SDS011;1840;48.892;15.312;2022-10-18T06:36:22;114.47;;;32.43;;
3647;SDS011;1840;48.892;15.312;2022-10-18T06:38:50;41.20;;;29.77;;
3647;SDS011;1840;48.892;15.312;2022-10-18T06:41:19;105.23;;;32.20;;
3647;SDS011;1840;48.892;15.312;2022-10-18T06:43:47;72.60;;;35.53;;
3647;SDS011;1840;48.892;15.312;2022-10-18T06:46:16;50.70;;;31.53;;
3647;SDS011;1840;48.892;15.312;2022-10-18T06:48:44;126.07;;;37.20;;
3647;SDS011;1840;48.892;15.312;2022-10-18T06:51:14;54.13;;;27.13;;
3647;SDS011;1840;48.892;15.312;2022-10-18T06:53:43;45.43;;;29.90;;
3647;SDS011;1840;48.892;15.312;2022-10-18T06:56:31;56.30;;;30.37;;
3647;SDS011;1840;48.892;15.312;2022-10-18T06:58:59;94.97;;;30.73;;
3647;SDS011;1840;48.892;15.312;2022-10-18T07:01:28;91.47;;;40.20;;
3647;SDS011;1840;48.892;15.312;2022-10-18T07:03:56;106.17;;;34.70;;
3647;SDS011;1840;48.892;15.312;2022-10-18T07:06:25;97.07;;;35.50;;
3647;SDS011;1840;48.892;15.312;2022-10-18T07:08:53;87.07;;;34.60;;
3647;SDS011;1840;48.892;15.312;2022-10-18T07:11:22;93.40;;;31.60;;
3647;SDS011;1840;48.892;15.312;2022-10-18T07:13:51;85.77;;;35.20;;
3647;SDS011;1840;48.892;15.312;2022-10-18T07:16:20;47.30;;;29.30;;
3647;SDS011;1840;48.892;15.312;2022-10-18T07:18:49;101.50;;;38.90;;
3647;SDS011;1840;48.892;15.312;2022-10-18T07:21:18;133.73;;;36.03;;
3647;SDS011;1840;48.892;15.312;2022-10-18T07:23:49;83.30;;;36.70;;
3647;SDS011;1840;48.892;15.312;2022-10-18T07:26:18;53.47;;;32.87;;
3647;SDS011;1840;48.892;15.312;2022-10-18T07:28:49;72.00;;;36.83;;
3647;SDS011;1840;48.892;15.312;2022-10-18T07:31:19;43.27;;;31.20;;
3647;SDS011;1840;48.892;15.312;2022-10-18T07:33:48;37.93;;;31.00;;
3647;SDS011;1840;48.892;15.312;2022-10-18T07:36:16;89.33;;;33.20;;
3647;SDS011;1840;48.892;15.312;2022-10-18T07:38:46;64.93;;;30.80;;
3647;SDS011;1840;48.892;15.312;2022-10-18T07:41:15;70.60;;;29.83;;
3647;SDS011;1840;48.892;15.312;2022-10-18T07:43:44;58.63;;;33.67;;
3647;SDS011;1840;48.892;15.312;2022-10-18T07:46:13;58.53;;;37.77;;
3647;SDS011;1840;48.892;15.312;2022-10-18T07:48:42;48.63;;;32.97;;
3647;SDS011;1840;48.892;15.312;2022-10-18T07:51:10;51.80;;;33.90;;
3647;SDS011;1840;48.892;15.312;2022-10-18T07:53:39;50.27;;;32.97;;
3647;SDS011;1840;48.892;15.312;2022-10-18T07:56:08;47.90;;;34.20;;
3647;SDS011;1840;48.892;15.312;2022-10-18T07:58:42;39.00;;;31.17;;
3647;SDS011;1840;48.892;15.312;2022-10-18T08:01:12;39.60;;;28.40;;
3647;SDS011;1840;48.892;15.312;2022-10-18T08:03:41;31.63;;;25.27;;
3647;SDS011;1840;48.892;15.312;2022-10-18T08:06:10;39.37;;;31.80;;
3647;SDS011;1840;48.892;15.312;2022-10-18T08:08:40;40.43;;;27.57;;
3647;SDS011;1840;48.892;15.312;2022-10-18T08:11:09;30.20;;;24.37;;
3647;SDS011;1840;48.892;15.312;2022-10-18T08:13:43;40.03;;;25.73;;
3647;SDS011;1840;48.892;15.312;2022-10-18T08:16:12;38.30;;;29.07;;
3647;SDS011;1840;48.892;15.312;2022-10-18T08:18:41;36.23;;;29.93;;
3647;SDS011;1840;48.892;15.312;2022-10-18T08:21:10;32.43;;;25.13;;
3647;SDS011;1840;48.892;15.312;2022-10-18T08:23:40;34.47;;;27.43;;
3647;SDS011;1840;48.892;15.312;2022-10-18T08:26:09;35.47;;;23.30;;
3647;SDS011;1840;48.892;15.312;2022-10-18T08:28:38;34.20;;;25.37;;
3647;SDS011;1840;48.892;15.312;2022-10-18T08:31:20;32.90;;;24.20;;
3647;SDS011;1840;48.892;15.312;2022-10-18T08:33:48;29.50;;;22.67;;
3647;SDS011;1840;48.892;15.312;2022-10-18T08:36:21;27.60;;;21.87;;
3647;SDS011;1840;48.892;15.312;2022-10-18T08:38:49;28.60;;;22.30;;
3647;SDS011;1840;48.892;15.312;2022-10-18T08:41:22;32.90;;;23.33;;
3647;SDS011;1840;48.892;15.312;2022-10-18T08:44:10;28.40;;;23.30;;
3647;SDS011;1840;48.892;15.312;2022-10-18T08:46:45;26.80;;;21.77;;
3647;SDS011;1840;48.892;15.312;2022-10-18T08:49:18;28.47;;;22.23;;
3647;SDS011;1840;48.892;15.312;2022-10-18T08:51:53;31.70;;;22.30;;
3647;SDS011;1840;48.892;15.312;2022-10-18T08:54:25;26.57;;;20.90;;
3647;SDS011;1840;48.892;15.312;2022-10-18T08:56:58;24.57;;;18.83;;
3647;SDS011;1840;48.892;15.312;2022-10-18T08:59:30;25.90;;;20.20;;
3647;SDS011;1840;48.892;15.312;2022-10-18T09:02:10;25.10;;;20.00;;
3647;SDS011;1840;48.892;15.312;2022-10-18T09:04:47;26.60;;;20.80;;
3647;SDS011;1840;48.892;15.312;2022-10-18T09:10:15;27.50;;;19.47;;
3647;SDS011;1840;48.892;15.312;2022-10-18T09:12:58;23.57;;;18.17;;
3647;SDS011;1840;48.892;15.312;2022-10-18T09:15:38;25.13;;;18.47;;
3647;SDS011;1840;48.892;15.312;2022-10-18T09:18:18;26.50;;;18.53;;
3647;SDS011;1840;48.892;15.312;2022-10-18T09:20:59;25.93;;;19.67;;
3647;SDS011;1840;48.892;15.312;2022-10-18T09:23:34;25.57;;;17.10;;
3647;SDS011;1840;48.892;15.312;2022-10-18T09:26:12;26.23;;;18.80;;
3647;SDS011;1840;48.892;15.312;2022-10-18T09:28:47;26.47;;;17.23;;
3647;SDS011;1840;48.892;15.312;2022-10-18T09:31:28;24.77;;;17.00;;
3647;SDS011;1840;48.892;15.312;2022-10-18T09:34:05;25.23;;;18.17;;
3647;SDS011;1840;48.892;15.312;2022-10-18T09:36:37;23.63;;;16.17;;
3647;SDS011;1840;48.892;15.312;2022-10-18T09:39:08;27.73;;;18.10;;
3647;SDS011;1840;48.892;15.312;2022-10-18T09:41:39;25.53;;;18.37;;
3647;SDS011;1840;48.892;15.312;2022-10-18T09:44:12;23.70;;;17.70;;
3647;SDS011;1840;48.892;15.312;2022-10-18T09:46:48;26.13;;;18.77;;
3647;SDS011;1840;48.892;15.312;2022-10-18T09:49:22;30.70;;;19.70;;
3647;SDS011;1840;48.892;15.312;2022-10-18T09:51:54;31.00;;;21.33;;
3647;SDS011;1840;48.892;15.312;2022-10-18T09:54:24;27.43;;;19.30;;
3647;SDS011;1840;48.892;15.312;2022-10-18T09:57:00;28.47;;;20.90;;
3647;SDS011;1840;48.892;15.312;2022-10-18T09:59:37;27.23;;;19.63;;
3647;SDS011;1840;48.892;15.312;2022-10-18T10:02:08;29.83;;;20.90;;
3647;SDS011;1840;48.892;15.312;2022-10-18T10:04:41;27.97;;;19.83;;
3647;SDS011;1840;48.892;15.312;2022-10-18T10:07:11;38.80;;;22.80;;
3647;SDS011;1840;48.892;15.312;2022-10-18T10:09:42;30.33;;;21.57;;
3647;SDS011;1840;48.892;15.312;2022-10-18T10:12:23;31.50;;;21.47;;
3647;SDS011;1840;48.892;15.312;2022-10-18T10:14:54;30.67;;;21.80;;
3647;SDS011;1840;48.892;15.312;2022-10-18T10:17:33;28.97;;;21.10;;
3647;SDS011;1840;48.892;15.312;2022-10-18T10:20:13;40.97;;;24.33;;
3647;SDS011;1840;48.892;15.312;2022-10-18T10:22:44;28.00;;;20.37;;
3647;SDS011;1840;48.892;15.312;2022-10-18T10:25:18;32.50;;;20.40;;
3647;SDS011;1840;48.892;15.312;2022-10-18T10:27:49;32.67;;;21.57;;
3647;SDS011;1840;48.892;15.312;2022-10-18T10:30:22;30.63;;;21.43;;
3647;SDS011;1840;48.892;15.312;2022-10-18T10:32:52;29.23;;;20.77;;
3647;SDS011;1840;48.892;15.312;2022-10-18T10:35:27;38.13;;;24.50;;
3647;SDS011;1840;48.892;15.312;2022-10-18T10:38:23;31.90;;;22.57;;
3647;SDS011;1840;48.892;15.312;2022-10-18T10:40:53;39.63;;;24.87;;
3647;SDS011;1840;48.892;15.312;2022-10-18T10:43:22;35.70;;;23.77;;
3647;SDS011;1840;48.892;15.312;2022-10-18T10:46:08;39.90;;;25.37;;
3647;SDS011;1840;48.892;15.312;2022-10-18T10:48:40;32.87;;;22.70;;
3647;SDS011;1840;48.892;15.312;2022-10-18T10:51:14;34.83;;;22.03;;
3647;SDS011;1840;48.892;15.312;2022-10-18T10:53:47;34.43;;;21.97;;
3647;SDS011;1840;48.892;15.312;2022-10-18T10:56:24;29.83;;;20.20;;
3647;SDS011;1840;48.892;15.312;2022-10-18T10:58:55;27.27;;;20.53;;
3647;SDS011;1840;48.892;15.312;2022-10-18T11:01:30;29.20;;;18.60;;
3647;SDS011;1840;48.892;15.312;2022-10-18T11:04:00;28.90;;;21.10;;
3647;SDS011;1840;48.892;15.312;2022-10-18T11:06:36;32.83;;;22.17;;
3647;SDS011;1840;48.892;15.312;2022-10-18T11:09:14;34.00;;;19.87;;
3647;SDS011;1840;48.892;15.312;2022-10-18T11:11:54;36.80;;;21.03;;
3647;SDS011;1840;48.892;15.312;2022-10-18T11:14:35;39.13;;;22.67;;
3647;SDS011;1840;48.892;15.312;2022-10-18T11:17:15;31.63;;;20.23;;
3647;SDS011;1840;48.892;15.312;2022-10-18T11:19:55;33.30;;;21.97;;
3647;SDS011;1840;48.892;15.312;2022-10-18T11:22:38;33.83;;;22.17;;
3647;SDS011;1840;48.892;15.312;2022-10-18T11:25:11;30.40;;;21.17;;
3647;SDS011;1840;48.892;15.312;2022-10-18T11:27:44;35.20;;;20.07;;
3647;SDS011;1840;48.892;15.312;2022-10-18T11:30:33;32.20;;;19.47;;
3647;SDS011;1840;48.892;15.312;2022-10-18T11:33:24;27.30;;;20.07;;
3647;SDS011;1840;48.892;15.312;2022-10-18T11:36:19;31.43;;;19.57;;
3647;SDS011;1840;48.892;15.312;2022-10-18T11:38:55;31.87;;;22.03;;
3647;SDS011;1840;48.892;15.312;2022-10-18T11:41:30;27.07;;;19.13;;
3647;SDS011;1840;48.892;15.312;2022-10-18T11:44:01;33.13;;;19.67;;
3647;SDS011;1840;48.892;15.312;2022-10-18T11:46:37;29.00;;;19.93;;
3647;SDS011;1840;48.892;15.312;2022-10-18T11:49:16;28.83;;;18.93;;
3647;SDS011;1840;48.892;15.312;2022-10-18T11:52:14;28.37;;;18.80;;
3647;SDS011;1840;48.892;15.312;2022-10-18T11:54:56;32.53;;;18.73;;
3647;SDS011;1840;48.892;15.312;2022-10-18T11:57:42;28.80;;;17.97;;
3647;SDS011;1840;48.892;15.312;2022-10-18T12:00:22;39.77;;;22.50;;
3647;SDS011;1840;48.892;15.312;2022-10-18T12:02:59;29.33;;;16.87;;
3647;SDS011;1840;48.892;15.312;2022-10-18T12:05:38;23.83;;;16.27;;
3647;SDS011;1840;48.892;15.312;2022-10-18T12:08:10;31.47;;;17.23;;
3647;SDS011;1840;48.892;15.312;2022-10-18T12:10:46;35.70;;;19.30;;
3647;SDS011;1840;48.892;15.312;2022-10-18T12:13:33;23.97;;;16.33;;
3647;SDS011;1840;48.892;15.312;2022-10-18T12:16:06;25.37;;;17.43;;
3647;SDS011;1840;48.892;15.312;2022-10-18T12:18:35;25.07;;;16.53;;
3647;SDS011;1840;48.892;15.312;2022-10-18T12:21:13;26.57;;;17.63;;
3647;SDS011;1840;48.892;15.312;2022-10-18T12:23:51;22.27;;;17.23;;
3647;SDS011;1840;48.892;15.312;2022-10-18T12:26:24;25.67;;;18.00;;
3647;SDS011;1840;48.892;15.312;2022-10-18T12:28:56;23.87;;;16.33;;
3647;SDS011;1840;48.892;15.312;2022-10-18T12:31:36;25.13;;;16.20;;
3647;SDS011;1840;48.892;15.312;2022-10-18T12:34:13;25.47;;;17.73;;
3647;SDS011;1840;48.892;15.312;2022-10-18T12:37:02;28.00;;;18.20;;
3647;SDS011;1840;48.892;15.312;2022-10-18T12:39:58;26.30;;;15.10;;
3647;SDS011;1840;48.892;15.312;2022-10-18T12:42:40;22.53;;;15.13;;
3647;SDS011;1840;48.892;15.312;2022-10-18T12:47:59;27.03;;;16.20;;
3647;SDS011;1840;48.892;15.312;2022-10-18T12:50:30;22.20;;;14.13;;
3647;SDS011;1840;48.892;15.312;2022-10-18T12:53:02;24.63;;;15.30;;
3647;SDS011;1840;48.892;15.312;2022-10-18T12:55:32;26.53;;;15.33;;
3647;SDS011;1840;48.892;15.312;2022-10-18T12:58:19;19.73;;;13.93;;
3647;SDS011;1840;48.892;15.312;2022-10-18T13:00:50;24.13;;;14.47;;
3647;SDS011;1840;48.892;15.312;2022-10-18T13:06:21;24.40;;;15.20;;
3647;SDS011;1840;48.892;15.312;2022-10-18T13:09:14;22.90;;;14.40;;
3647;SDS011;1840;48.892;15.312;2022-10-18T13:11:44;19.67;;;14.10;;
3647;SDS011;1840;48.892;15.312;2022-10-18T13:17:44;24.63;;;13.50;;
3647;SDS011;1840;48.892;15.312;2022-10-18T13:20:18;20.10;;;12.60;;
3647;SDS011;1840;48.892;15.312;2022-10-18T13:22:58;21.27;;;13.73;;
3647;SDS011;1840;48.892;15.312;2022-10-18T13:25:38;19.50;;;13.80;;
3647;SDS011;1840;48.892;15.312;2022-10-18T13:28:20;25.33;;;14.60;;
3647;SDS011;1840;48.892;15.312;2022-10-18T13:31:00;31.83;;;15.10;;
3647;SDS011;1840;48.892;15.312;2022-10-18T13:33:38;23.47;;;17.60;;
3647;SDS011;1840;48.892;15.312;2022-10-18T13:36:18;18.23;;;12.10;;
3647;SDS011;1840;48.892;15.312;2022-10-18T13:38:59;29.53;;;13.27;;
3647;SDS011;1840;48.892;15.312;2022-10-18T13:41:30;21.30;;;12.60;;
3647;SDS011;1840;48.892;15.312;2022-10-18T13:44:25;20.10;;;13.17;;
3647;SDS011;1840;48.892;15.312;2022-10-18T13:53:27;14.33;;;11.27;;
3647;SDS011;1840;48.892;15.312;2022-10-18T13:59:19;19.70;;;10.90;;
3647;SDS011;1840;48.892;15.312;2022-10-18T14:02:01;22.33;;;11.50;;
3647;SDS011;1840;48.892;15.312;2022-10-18T14:05:07;20.43;;;11.80;;
3647;SDS011;1840;48.892;15.312;2022-10-18T14:07:51;22.67;;;12.90;;
3647;SDS011;1840;48.892;15.312;2022-10-18T14:10:25;23.50;;;11.70;;
3647;SDS011;1840;48.892;15.312;2022-10-18T14:13:23;19.03;;;11.90;;
3647;SDS011;1840;48.892;15.312;2022-10-18T14:16:00;26.20;;;10.77;;
3647;SDS011;1840;48.892;15.312;2022-10-18T14:18:33;16.83;;;12.00;;
3647;SDS011;1840;48.892;15.312;2022-10-18T14:21:05;19.40;;;12.00;;
3647;SDS011;1840;48.892;15.312;2022-10-18T14:23:43;18.43;;;11.23;;
3647;SDS011;1840;48.892;15.312;2022-10-18T14:26:13;17.83;;;11.20;;
3647;SDS011;1840;48.892;15.312;2022-10-18T14:28:42;19.03;;;11.80;;
3647;SDS011;1840;48.892;15.312;2022-10-18T14:31:27;23.40;;;13.90;;
3647;SDS011;1840;48.892;15.312;2022-10-18T14:33:56;20.80;;;12.90;;
3647;SDS011;1840;48.892;15.312;2022-10-18T14:36:26;31.37;;;15.00;;
3647;SDS011;1840;48.892;15.312;2022-10-18T14:38:57;21.33;;;13.30;;
3647;SDS011;1840;48.892;15.312;2022-10-18T14:41:28;29.80;;;14.20;;
3647;SDS011;1840;48.892;15.312;2022-10-18T14:44:10;25.47;;;12.50;;
3647;SDS011;1840;48.892;15.312;2022-10-18T14:46:46;23.60;;;13.87;;
3647;SDS011;1840;48.892;15.312;2022-10-18T14:49:16;23.87;;;15.20;;
3647;SDS011;1840;48.892;15.312;2022-10-18T14:51:46;22.77;;;13.83;;
3647;SDS011;1840;48.892;15.312;2022-10-18T14:54:19;23.80;;;14.07;;
3647;SDS011;1840;48.892;15.312;2022-10-18T14:56:57;39.30;;;21.70;;
3647;SDS011;1840;48.892;15.312;2022-10-18T14:59:26;25.57;;;16.30;;
3647;SDS011;1840;48.892;15.312;2022-10-18T15:01:58;40.90;;;30.17;;
3647;SDS011;1840;48.892;15.312;2022-10-18T15:04:30;25.20;;;17.90;;
3647;SDS011;1840;48.892;15.312;2022-10-18T15:06:59;16.63;;;12.67;;
3647;SDS011;1840;48.892;15.312;2022-10-18T15:09:29;56.63;;;38.27;;
3647;SDS011;1840;48.892;15.312;2022-10-18T15:11:59;55.03;;;36.83;;
3647;SDS011;1840;48.892;15.312;2022-10-18T15:14:28;39.43;;;27.03;;
3647;SDS011;1840;48.892;15.312;2022-10-18T15:17:00;31.60;;;21.97;;
3647;SDS011;1840;48.892;15.312;2022-10-18T15:19:32;35.27;;;22.90;;
3647;SDS011;1840;48.892;15.312;2022-10-18T15:22:03;45.63;;;28.03;;
3647;SDS011;1840;48.892;15.312;2022-10-18T15:25:10;33.83;;;22.87;;
3647;SDS011;1840;48.892;15.312;2022-10-18T15:27:44;32.20;;;20.70;;
3647;SDS011;1840;48.892;15.312;2022-10-18T15:30:15;41.53;;;25.60;;
3647;SDS011;1840;48.892;15.312;2022-10-18T15:32:51;32.30;;;20.93;;